createdAt,value
2018-11-01T00:00:23.537Z,964.70
2018-11-01T00:02:49.866Z,964.76
2018-11-01T00:05:16.172Z,964.66
2018-11-01T00:07:42.503Z,964.70
2018-11-01T00:10:08.903Z,964.71
2018-11-01T00:12:35.213Z,964.68
2018-11-01T00:15:01.537Z,964.67
2018-11-01T00:17:28.019Z,964.68
2018-11-01T00:19:54.170Z,964.68
2018-11-01T00:22:20.473Z,964.70
2018-11-01T00:24:46.798Z,964.63
2018-11-01T00:27:13.163Z,964.62
2018-11-01T00:29:39.486Z,964.72
2018-11-01T00:32:05.786Z,964.71
2018-11-01T00:34:32.089Z,964.70
2018-11-01T00:36:58.419Z,964.75
2018-11-01T00:39:24.722Z,964.78
2018-11-01T00:41:51.060Z,964.78
2018-11-01T00:44:17.382Z,964.85
2018-11-01T00:46:43.682Z,964.80
2018-11-01T00:49:10.011Z,964.79
2018-11-01T00:51:36.334Z,964.81
2018-11-01T00:54:02.679Z,964.80
2018-11-01T00:56:28.997Z,964.75
2018-11-01T00:58:55.296Z,964.79
2018-11-01T01:01:21.641Z,964.80
2018-11-01T01:03:47.968Z,964.84
2018-11-01T01:06:14.273Z,964.82
2018-11-01T01:08:40.598Z,964.82
2018-11-01T01:11:06.933Z,964.83
2018-11-01T01:13:33.231Z,964.74
2018-11-01T01:15:59.626Z,964.74
2018-11-01T01:18:25.954Z,964.69
2018-11-01T01:20:52.281Z,964.74
2018-11-01T01:23:18.611Z,964.68
2018-11-01T01:25:44.934Z,964.72
2018-11-01T01:28:11.241Z,964.74
2018-11-01T01:30:37.563Z,964.76
2018-11-01T01:33:03.901Z,964.69
2018-11-01T01:35:30.209Z,964.81
2018-11-01T01:37:56.515Z,964.78
2018-11-01T01:40:22.842Z,964.77
2018-11-01T01:42:49.171Z,964.74
2018-11-01T01:45:15.475Z,964.71
2018-11-01T01:47:41.776Z,964.76
2018-11-01T01:50:08.102Z,964.76
2018-11-01T01:52:34.448Z,964.77
2018-11-01T01:55:00.777Z,964.73
2018-11-01T01:57:27.076Z,964.73
2018-11-01T01:59:53.376Z,964.78
2018-11-01T02:02:19.722Z,964.91
2018-11-01T02:04:46.025Z,964.94
2018-11-01T02:07:12.348Z,964.88
2018-11-01T02:09:38.653Z,964.79
2018-11-01T02:12:04.957Z,964.73
2018-11-01T02:14:31.282Z,964.84
2018-11-01T02:16:57.584Z,964.84
2018-11-01T02:19:23.889Z,964.84
2018-11-01T02:21:50.198Z,964.86
2018-11-01T02:24:16.520Z,964.84
2018-11-01T02:26:42.854Z,964.85
2018-11-01T02:29:09.180Z,964.84
2018-11-01T02:31:35.512Z,964.92
2018-11-01T02:34:01.880Z,964.87
2018-11-01T02:36:28.180Z,964.93
2018-11-01T02:38:54.530Z,964.84
2018-11-01T02:41:20.830Z,964.76
2018-11-01T02:43:47.141Z,964.80
2018-11-01T02:46:13.445Z,964.67
2018-11-01T02:48:39.749Z,964.60
2018-11-01T02:51:06.082Z,964.52
2018-11-01T02:53:32.401Z,964.58
2018-11-01T02:55:58.795Z,964.59
2018-11-01T02:58:25.100Z,964.63
2018-11-01T03:00:51.405Z,964.59
2018-11-01T03:03:17.734Z,964.55
2018-11-01T03:05:44.062Z,964.61
2018-11-01T03:08:10.368Z,964.60
2018-11-01T03:10:36.673Z,964.57
2018-11-01T03:13:03.020Z,964.62
2018-11-01T03:15:29.322Z,964.58
2018-11-01T03:17:55.625Z,964.55
2018-11-01T03:20:21.935Z,964.58
2018-11-01T03:22:48.228Z,964.46
2018-11-01T03:25:14.558Z,964.44
2018-11-01T03:27:40.867Z,964.43
2018-11-01T03:30:07.195Z,964.56
2018-11-01T03:32:33.529Z,964.64
2018-11-01T03:34:59.860Z,964.67
2018-11-01T03:37:26.164Z,964.71
2018-11-01T03:39:52.471Z,964.68
2018-11-01T03:42:18.805Z,964.68
2018-11-01T03:44:45.109Z,964.74
2018-11-01T03:47:11.458Z,964.72
2018-11-01T03:49:37.792Z,964.66
2018-11-01T03:52:04.331Z,964.66
2018-11-01T03:54:30.558Z,964.69
2018-11-01T03:56:56.860Z,964.77
2018-11-01T03:59:23.162Z,964.83
2018-11-01T04:01:49.466Z,964.87
2018-11-01T04:04:15.769Z,964.79
2018-11-01T04:06:42.156Z,964.77
2018-11-01T04:09:08.489Z,964.65
2018-11-01T04:11:34.809Z,964.62
2018-11-01T04:14:01.110Z,964.68
2018-11-01T04:16:27.444Z,964.69
2018-11-01T04:18:53.741Z,964.63
2018-11-01T04:21:20.049Z,964.64
2018-11-01T04:23:46.383Z,964.65
2018-11-01T04:26:12.692Z,964.64
2018-11-01T04:28:39.031Z,964.71
2018-11-01T04:31:05.338Z,964.76
2018-11-01T04:33:31.766Z,964.76
2018-11-01T04:35:58.033Z,964.76
2018-11-01T04:38:24.338Z,964.75
2018-11-01T04:40:50.664Z,964.84
2018-11-01T04:43:16.978Z,964.76
2018-11-01T04:45:43.278Z,964.77
2018-11-01T04:48:09.587Z,964.66
2018-11-01T04:50:35.909Z,964.67
2018-11-01T04:53:02.233Z,964.72
2018-11-01T04:55:28.568Z,964.67
2018-11-01T04:57:54.890Z,964.65
2018-11-01T05:00:21.247Z,964.68
2018-11-01T05:02:47.555Z,964.71
2018-11-01T05:05:14.030Z,964.79
2018-11-01T05:07:40.218Z,964.77
2018-11-01T05:10:06.549Z,964.82
2018-11-01T05:12:32.896Z,964.77
2018-11-01T05:14:59.225Z,964.71
2018-11-01T05:17:25.509Z,964.77
2018-11-01T05:19:51.837Z,964.83
2018-11-01T05:22:18.150Z,964.87
2018-11-01T05:24:44.546Z,964.90
2018-11-01T05:27:10.839Z,964.86
2018-11-01T05:29:37.183Z,964.79
2018-11-01T05:32:03.444Z,964.89
2018-11-01T05:34:29.816Z,964.85
2018-11-01T05:36:56.104Z,964.89
2018-11-01T05:39:22.431Z,964.89
2018-11-01T05:41:48.741Z,964.99
2018-11-01T05:44:15.062Z,965.07
2018-11-01T05:46:41.364Z,965.17
2018-11-01T05:49:07.695Z,965.20
2018-11-01T05:51:34.026Z,965.14
2018-11-01T05:54:00.341Z,965.13
2018-11-01T05:56:26.645Z,965.04
2018-11-01T05:58:52.973Z,965.09
2018-11-01T06:01:19.300Z,965.10
2018-11-01T06:03:45.629Z,965.07
2018-11-01T06:06:11.965Z,965.16
2018-11-01T06:08:38.314Z,965.09
2018-11-01T06:11:04.608Z,965.09
2018-11-01T06:13:30.934Z,965.13
2018-11-01T06:15:57.245Z,965.11
2018-11-01T06:18:23.571Z,965.15
2018-11-01T06:20:49.923Z,965.16
2018-11-01T06:23:16.228Z,965.26
2018-11-01T06:25:42.557Z,965.36
2018-11-01T06:28:08.896Z,965.39
2018-11-01T06:30:35.223Z,965.34
2018-11-01T06:33:01.534Z,965.34
2018-11-01T06:35:27.874Z,965.34
2018-11-01T06:37:54.171Z,965.36
2018-11-01T06:40:20.502Z,965.39
2018-11-01T06:42:46.834Z,965.38
2018-11-01T06:45:13.161Z,965.33
2018-11-01T06:47:39.491Z,965.35
2018-11-01T06:50:05.843Z,965.34
2018-11-01T06:52:32.185Z,965.39
2018-11-01T06:54:58.466Z,965.41
2018-11-01T06:57:24.804Z,965.40
2018-11-01T06:59:51.128Z,965.34
2018-11-01T07:02:17.431Z,965.35
2018-11-01T07:04:43.737Z,965.34
2018-11-01T07:07:10.040Z,965.36
2018-11-01T07:09:36.365Z,965.42
2018-11-01T07:12:02.674Z,965.35
2018-11-01T07:14:28.995Z,965.28
2018-11-01T07:16:55.377Z,965.32
2018-11-01T07:19:21.622Z,965.35
2018-11-01T07:21:47.946Z,965.30
2018-11-01T07:24:14.280Z,965.36
2018-11-01T07:26:40.653Z,965.35
2018-11-01T07:29:06.951Z,965.28
2018-11-01T07:31:33.285Z,965.24
2018-11-01T07:33:59.646Z,965.35
2018-11-01T07:36:25.968Z,965.36
2018-11-01T07:38:52.276Z,965.25
2018-11-01T07:41:18.607Z,965.21
2018-11-01T07:43:44.938Z,965.13
2018-11-01T07:46:11.255Z,965.16
2018-11-01T07:48:37.640Z,965.19
2018-11-01T07:51:03.924Z,965.16
2018-11-01T07:53:30.261Z,965.10
2018-11-01T07:55:56.568Z,965.07
2018-11-01T07:58:22.946Z,965.02
2018-11-01T08:00:49.202Z,965.07
2018-11-01T08:03:15.519Z,965.01
2018-11-01T08:05:41.850Z,965.10
2018-11-01T08:08:08.152Z,965.17
2018-11-01T08:10:34.455Z,965.14
2018-11-01T08:13:00.771Z,965.18
2018-11-01T08:15:27.099Z,965.15
2018-11-01T08:17:53.422Z,965.23
2018-11-01T08:20:19.966Z,965.30
2018-11-01T08:22:46.058Z,965.37
2018-11-01T08:25:12.415Z,965.40
2018-11-01T08:27:38.728Z,965.26
2018-11-01T08:30:05.043Z,965.24
2018-11-01T08:32:31.453Z,965.29
2018-11-01T08:34:57.788Z,965.27
2018-11-01T08:37:24.087Z,965.26
2018-11-01T08:39:50.396Z,965.29
2018-11-01T08:42:16.725Z,965.20
2018-11-01T08:44:43.091Z,965.18
2018-11-01T08:47:09.392Z,965.20
2018-11-01T08:49:35.787Z,965.21
2018-11-01T08:52:02.061Z,965.24
2018-11-01T08:54:28.373Z,965.24
2018-11-01T08:56:54.699Z,965.28
2018-11-01T08:59:21.007Z,965.24
2018-11-01T09:01:47.389Z,965.28
2018-11-01T09:04:13.713Z,965.24
2018-11-01T09:06:40.015Z,965.24
2018-11-01T09:09:06.356Z,965.19
2018-11-01T09:11:32.683Z,965.10
2018-11-01T09:13:59.053Z,965.08
2018-11-01T09:16:25.359Z,964.97
2018-11-01T09:18:51.733Z,964.90
2018-11-01T09:21:18.055Z,964.99
2018-11-01T09:23:44.379Z,964.99
2018-11-01T09:26:10.706Z,965.03
2018-11-01T09:28:37.063Z,965.02
2018-11-01T09:31:03.419Z,964.97
2018-11-01T09:33:29.722Z,965.00
2018-11-01T09:35:56.020Z,964.91
2018-11-01T09:38:22.327Z,965.01
2018-11-01T09:40:48.647Z,964.94
2018-11-01T09:43:14.954Z,964.86
2018-11-01T09:45:41.290Z,964.79
2018-11-01T09:48:07.586Z,964.80
2018-11-01T09:50:33.961Z,964.89
2018-11-01T09:53:00.260Z,964.80
2018-11-01T09:55:26.689Z,964.77
2018-11-01T09:57:53.039Z,964.74
2018-11-01T10:00:19.342Z,964.78
2018-11-01T10:02:45.649Z,964.78
2018-11-01T10:05:11.953Z,964.76
2018-11-01T10:07:38.265Z,964.78
2018-11-01T10:10:04.671Z,964.74
2018-11-01T10:12:30.965Z,964.71
2018-11-01T10:14:57.330Z,964.61
2018-11-01T10:17:23.955Z,964.52
2018-11-01T10:19:49.901Z,964.55
2018-11-01T10:22:16.240Z,964.46
2018-11-01T10:24:42.514Z,964.47
2018-11-01T10:27:08.838Z,964.45
2018-11-01T10:29:35.172Z,964.44
2018-11-01T10:32:01.502Z,964.40
2018-11-01T10:34:27.804Z,964.42
2018-11-01T10:36:54.165Z,964.43
2018-11-01T10:39:20.491Z,964.35
2018-11-01T10:41:46.789Z,964.34
2018-11-01T10:44:13.092Z,964.33
2018-11-01T10:46:39.427Z,964.28
2018-11-01T10:49:05.754Z,964.21
2018-11-01T10:51:32.090Z,964.21
2018-11-01T10:53:58.482Z,964.29
2018-11-01T10:56:24.766Z,964.38
2018-11-01T10:58:51.072Z,964.30
2018-11-01T11:01:17.587Z,964.26
2018-11-01T11:03:43.740Z,964.27
2018-11-01T11:06:10.046Z,964.21
2018-11-01T11:08:36.407Z,964.21
2018-11-01T11:11:02.740Z,964.20
2018-11-01T11:13:29.040Z,964.22
2018-11-01T11:15:55.350Z,964.20
2018-11-01T11:18:21.710Z,964.25
2018-11-01T11:20:48.270Z,964.11
2018-11-01T11:23:14.333Z,964.17
2018-11-01T11:25:40.671Z,964.12
2018-11-01T11:28:06.996Z,964.09
2018-11-01T11:30:33.455Z,964.05
2018-11-01T11:32:59.636Z,964.04
2018-11-01T11:35:25.998Z,964.03
2018-11-01T11:37:52.282Z,963.98
2018-11-01T11:40:18.621Z,963.95
2018-11-01T11:42:44.949Z,963.95
2018-11-01T11:45:11.251Z,963.97
2018-11-01T11:47:37.584Z,963.88
2018-11-01T11:50:03.913Z,963.74
2018-11-01T11:52:30.246Z,963.76
2018-11-01T11:54:56.578Z,963.77
2018-11-01T11:57:22.881Z,963.76
2018-11-01T11:59:49.193Z,963.70
2018-11-01T12:02:15.562Z,963.69
2018-11-01T12:04:41.827Z,963.74
2018-11-01T12:07:08.167Z,963.76
2018-11-01T12:09:34.472Z,963.77
2018-11-01T12:12:00.797Z,963.66
2018-11-01T12:14:27.136Z,963.70
2018-11-01T12:16:53.407Z,963.63
2018-11-01T12:19:19.708Z,963.60
2018-11-01T12:21:46.013Z,963.51
2018-11-01T12:24:12.318Z,963.50
2018-11-01T12:26:38.615Z,963.49
2018-11-01T12:29:04.981Z,963.46
2018-11-01T12:31:31.257Z,963.51
2018-11-01T12:33:57.567Z,963.46
2018-11-01T12:36:23.905Z,963.48
2018-11-01T12:38:50.235Z,963.46
2018-11-01T12:41:16.566Z,963.44
2018-11-01T12:43:42.929Z,963.45
2018-11-01T12:46:09.255Z,963.40
2018-11-01T12:48:35.562Z,963.41
2018-11-01T12:51:01.882Z,963.37
2018-11-01T12:53:28.183Z,963.37
2018-11-01T12:55:54.542Z,963.40
2018-11-01T12:58:20.874Z,963.40
2018-11-01T13:00:47.175Z,963.34
2018-11-01T13:03:13.505Z,963.39
2018-11-01T13:05:39.822Z,963.33
2018-11-01T13:08:06.121Z,963.38
2018-11-01T13:10:32.482Z,963.40
2018-11-01T13:12:58.798Z,963.40
2018-11-01T13:15:25.100Z,963.46
2018-11-01T13:17:51.526Z,963.43
2018-11-01T13:20:17.770Z,963.44
2018-11-01T13:22:44.099Z,963.50
2018-11-01T13:25:10.436Z,963.46
2018-11-01T13:27:36.786Z,963.43
2018-11-01T13:30:03.115Z,963.49
2018-11-01T13:32:29.447Z,963.54
2018-11-01T13:34:55.855Z,963.51
2018-11-01T13:37:22.081Z,963.52
2018-11-01T13:39:48.528Z,963.50
2018-11-01T13:42:14.687Z,963.47
2018-11-01T13:44:41.012Z,963.51
2018-11-01T13:47:07.369Z,963.57
2018-11-01T13:49:33.672Z,963.53
2018-11-01T13:52:00.053Z,963.57
2018-11-01T13:54:26.390Z,963.61
2018-11-01T13:56:52.696Z,963.58
2018-11-01T13:59:19.019Z,963.56
2018-11-01T14:01:45.366Z,963.55
2018-11-01T14:04:11.687Z,963.53
2018-11-01T14:06:38.011Z,963.57
2018-11-01T14:09:04.338Z,963.55
2018-11-01T14:11:30.634Z,963.56
2018-11-01T14:13:57.460Z,963.55
2018-11-01T14:16:23.326Z,963.48
2018-11-01T14:18:49.605Z,963.52
2018-11-01T14:21:15.933Z,963.53
2018-11-01T14:23:42.230Z,963.47
2018-11-01T14:26:08.541Z,963.49
2018-11-01T14:28:34.867Z,963.45
2018-11-01T14:31:01.218Z,963.41
2018-11-01T14:33:27.502Z,963.39
2018-11-01T14:35:53.803Z,963.40
2018-11-01T14:38:20.103Z,963.44
2018-11-01T14:40:46.427Z,963.35
2018-11-01T14:43:12.735Z,963.39
2018-11-01T14:45:39.042Z,963.40
2018-11-01T14:48:05.369Z,963.38
2018-11-01T14:50:31.678Z,963.38
2018-11-01T14:52:58.636Z,963.34
2018-11-01T14:55:25.342Z,963.29
2018-11-01T14:57:52.151Z,963.29
2018-11-01T15:00:16.941Z,963.26
2018-11-01T15:02:43.338Z,963.26
2018-11-01T15:05:09.544Z,963.26
2018-11-01T15:07:35.848Z,963.27
2018-11-01T15:10:02.193Z,963.26
2018-11-01T15:12:28.514Z,963.25
2018-11-01T15:14:54.872Z,963.24
2018-11-01T15:17:21.174Z,963.23
2018-11-01T15:19:47.535Z,963.26
2018-11-01T15:22:13.850Z,963.29
2018-11-01T15:24:40.148Z,963.35
2018-11-01T15:27:06.476Z,963.36
2018-11-01T15:29:32.808Z,963.39
2018-11-01T15:31:59.152Z,963.43
2018-11-01T15:34:25.459Z,963.46
2018-11-01T15:36:51.797Z,963.46
2018-11-01T15:39:18.119Z,963.47
2018-11-01T15:41:44.444Z,963.53
2018-11-01T15:44:10.814Z,963.64
2018-11-01T15:46:37.142Z,963.59
2018-11-01T15:49:03.518Z,963.61
2018-11-01T15:51:29.842Z,963.72
2018-11-01T15:53:56.150Z,963.77
2018-11-01T15:56:22.563Z,963.77
2018-11-01T15:58:48.832Z,963.85
2018-11-01T16:01:15.154Z,963.76
2018-11-01T16:03:41.510Z,963.81
2018-11-01T16:06:07.866Z,963.84
2018-11-01T16:08:34.189Z,963.89
2018-11-01T16:11:00.497Z,963.86
2018-11-01T16:13:26.806Z,963.91
2018-11-01T16:15:53.111Z,963.98
2018-11-01T16:18:19.434Z,963.95
2018-11-01T16:20:45.742Z,963.90
2018-11-01T16:23:12.124Z,963.94
2018-11-01T16:25:38.393Z,963.93
2018-11-01T16:28:04.730Z,963.93
2018-11-01T16:30:31.098Z,963.96
2018-11-01T16:32:57.396Z,963.96
2018-11-01T16:35:23.703Z,964.01
2018-11-01T16:37:50.035Z,964.08
2018-11-01T16:40:16.357Z,964.10
2018-11-01T16:42:42.862Z,964.11
2018-11-01T16:45:09.091Z,964.04
2018-11-01T16:47:35.342Z,964.00
2018-11-01T16:50:01.700Z,964.09
2018-11-01T16:52:27.999Z,964.08
2018-11-01T16:54:54.297Z,964.01
2018-11-01T16:57:20.623Z,963.98
2018-11-01T16:59:46.913Z,964.00
2018-11-01T17:02:13.246Z,963.97
2018-11-01T17:04:39.568Z,963.89
2018-11-01T17:07:05.889Z,963.73
2018-11-01T17:09:32.246Z,963.62
2018-11-01T17:11:58.582Z,963.45
2018-11-01T17:14:24.907Z,963.41
2018-11-01T17:16:51.213Z,963.38
2018-11-01T17:19:17.534Z,963.22
2018-11-01T17:21:43.857Z,963.11
2018-11-01T17:24:10.199Z,963.13
2018-11-01T17:26:36.470Z,963.22
2018-11-01T17:29:02.821Z,963.24
2018-11-01T17:31:29.131Z,963.35
2018-11-01T17:33:55.535Z,963.41
2018-11-01T17:36:21.817Z,963.44
2018-11-01T17:38:48.124Z,963.52
2018-11-01T17:41:14.454Z,963.62
2018-11-01T17:43:40.749Z,963.75
2018-11-01T17:46:07.219Z,963.82
2018-11-01T17:48:33.383Z,963.83
2018-11-01T17:50:59.751Z,963.85
2018-11-01T17:53:26.054Z,963.88
2018-11-01T17:55:52.356Z,963.86
2018-11-01T17:58:18.692Z,963.87
2018-11-01T18:00:44.988Z,963.90
2018-11-01T18:03:11.352Z,963.93
2018-11-01T18:05:37.652Z,963.91
2018-11-01T18:08:03.974Z,963.97
2018-11-01T18:10:30.280Z,963.96
2018-11-01T18:12:56.608Z,964.00
2018-11-01T18:15:22.930Z,964.01
2018-11-01T18:17:49.239Z,963.99
2018-11-01T18:20:15.544Z,963.92
2018-11-01T18:22:41.846Z,963.98
2018-11-01T18:25:08.175Z,963.99
2018-11-01T18:27:34.481Z,963.94
2018-11-01T18:30:00.811Z,963.97
2018-11-01T18:32:27.251Z,963.96
2018-11-01T18:34:53.444Z,963.97
2018-11-01T18:37:19.767Z,963.92
2018-11-01T18:39:46.109Z,963.99
2018-11-01T18:42:12.473Z,964.00
2018-11-01T18:44:38.774Z,964.06
2018-11-01T18:47:05.171Z,964.12
2018-11-01T18:49:31.476Z,964.18
2018-11-01T18:51:57.798Z,964.25
2018-11-01T18:54:24.189Z,964.22
2018-11-01T18:56:50.439Z,964.28
2018-11-01T18:59:16.808Z,964.30
2018-11-01T19:01:43.110Z,964.32
2018-11-01T19:04:09.437Z,964.29
2018-11-01T19:06:35.765Z,964.33
2018-11-01T19:09:02.069Z,964.37
2018-11-01T19:11:28.422Z,964.32
2018-11-01T19:16:21.028Z,964.43
2018-11-01T19:18:47.353Z,964.40
2018-11-01T19:21:13.656Z,964.39
2018-11-01T19:23:39.956Z,964.45
2018-11-01T19:26:06.281Z,964.32
2018-11-01T19:28:32.581Z,964.34
2018-11-01T19:30:58.904Z,964.40
2018-11-01T19:33:25.248Z,964.42
2018-11-01T19:35:51.574Z,964.38
2018-11-01T19:38:17.874Z,964.43
2018-11-01T19:40:44.180Z,964.37
2018-11-01T19:43:10.509Z,964.44
2018-11-01T19:45:36.816Z,964.46
2018-11-01T19:48:03.121Z,964.51
2018-11-01T19:50:29.486Z,964.50
2018-11-01T19:52:55.785Z,964.49
2018-11-01T19:55:22.088Z,964.45
2018-11-01T19:57:48.424Z,964.52
2018-11-01T20:00:14.761Z,964.53
2018-11-01T20:02:41.106Z,964.53
2018-11-01T20:05:07.428Z,964.48
2018-11-01T20:07:33.755Z,964.51
2018-11-01T20:10:00.136Z,964.47
2018-11-01T20:12:26.424Z,964.45
2018-11-01T20:14:52.824Z,964.48
2018-11-01T20:17:19.057Z,964.37
2018-11-01T20:19:45.454Z,964.43
2018-11-01T20:22:11.789Z,964.45
2018-11-01T20:24:38.062Z,964.46
2018-11-01T20:27:04.473Z,964.54
2018-11-01T20:29:30.796Z,964.49
2018-11-01T20:31:57.128Z,964.40
2018-11-01T20:34:24.012Z,964.47
2018-11-01T20:36:50.402Z,964.50
2018-11-01T20:39:16.735Z,964.55
2018-11-01T20:41:43.112Z,964.53
2018-11-01T20:44:09.545Z,964.49
2018-11-01T20:46:35.909Z,964.47
2018-11-01T20:49:02.274Z,964.44
2018-11-01T20:51:28.698Z,964.43
2018-11-01T20:53:55.009Z,964.42
2018-11-01T20:56:21.319Z,964.40
2018-11-01T20:58:47.651Z,964.45
2018-11-01T21:01:13.959Z,964.35
2018-11-01T21:03:40.270Z,964.40
2018-11-01T21:06:06.574Z,964.51
2018-11-01T21:08:32.874Z,964.31
2018-11-01T21:10:59.196Z,964.28
2018-11-01T21:13:25.493Z,964.34
2018-11-01T21:15:51.796Z,964.40
2018-11-01T21:18:18.160Z,964.43
2018-11-01T21:20:44.468Z,964.30
2018-11-01T21:23:10.885Z,964.30
2018-11-01T21:25:37.193Z,964.42
2018-11-01T21:28:03.536Z,964.48
2018-11-01T21:30:29.827Z,964.48
2018-11-01T21:32:56.144Z,964.51
2018-11-01T21:35:22.510Z,964.49
2018-11-01T21:37:48.831Z,964.54
2018-11-01T21:40:15.158Z,964.51
2018-11-01T21:42:41.466Z,964.47
2018-11-01T21:45:07.800Z,964.48
2018-11-01T21:47:34.129Z,964.55
2018-11-01T21:50:00.435Z,964.52
2018-11-01T21:52:26.850Z,964.53
2018-11-01T21:54:53.194Z,964.47
2018-11-01T21:57:19.476Z,964.57
2018-11-01T21:59:45.798Z,964.50
2018-11-01T22:02:12.113Z,964.60
2018-11-01T22:04:38.413Z,964.48
2018-11-01T22:07:04.744Z,964.58
2018-11-01T22:09:31.111Z,964.55
2018-11-01T22:11:57.399Z,964.61
2018-11-01T22:14:23.722Z,964.61
2018-11-01T22:16:50.059Z,964.56
2018-11-01T22:19:16.356Z,964.57
2018-11-01T22:21:42.660Z,964.57
2018-11-01T22:24:08.960Z,964.57
2018-11-01T22:26:35.348Z,964.60
2018-11-01T22:29:01.750Z,964.54
2018-11-01T22:31:28.039Z,964.57
2018-11-01T22:33:54.357Z,964.59
2018-11-01T22:36:20.693Z,964.65
2018-11-01T22:38:47.035Z,964.63
2018-11-01T22:41:13.356Z,964.68
2018-11-01T22:43:39.665Z,964.65
2018-11-01T22:46:05.970Z,964.61
2018-11-01T22:48:32.308Z,964.62
2018-11-01T22:50:58.613Z,964.64
2018-11-01T22:53:24.938Z,964.64
2018-11-01T22:55:51.262Z,964.62
2018-11-01T22:58:17.595Z,964.59
2018-11-01T23:00:43.934Z,964.59
2018-11-01T23:03:10.238Z,964.54
2018-11-01T23:05:36.565Z,964.58
2018-11-01T23:08:02.871Z,964.57
2018-11-01T23:10:29.180Z,964.49
2018-11-01T23:12:55.491Z,964.59
2018-11-01T23:15:21.797Z,964.56
2018-11-01T23:17:48.105Z,964.51
2018-11-01T23:20:14.405Z,964.47
2018-11-01T23:22:40.715Z,964.44
2018-11-01T23:25:07.011Z,964.46
2018-11-01T23:27:33.312Z,964.58
2018-11-01T23:29:59.652Z,964.50
2018-11-01T23:32:25.955Z,964.55
2018-11-01T23:34:52.259Z,964.50
2018-11-01T23:37:18.574Z,964.54
2018-11-01T23:39:44.883Z,964.53
2018-11-01T23:42:11.186Z,964.50
2018-11-01T23:44:37.496Z,964.48
2018-11-01T23:47:03.802Z,964.50
2018-11-01T23:49:30.105Z,964.55
2018-11-01T23:51:56.430Z,964.56
2018-11-01T23:54:22.738Z,964.55
2018-11-01T23:56:49.041Z,964.61
2018-11-01T23:59:15.340Z,964.60
